Time;durP1;ratioP1;P1;durP2;ratioP2;P2;SDS_P1;SDS_P2;PMS_P1;PMS_P2;Temp;Humidity;BMP_temperature;BMP_pressure;BME280_temperature;BME280_humidity;BME280_pressure;Samples;Min_cycle;Max_cycle;Signal;HPM_P1;HPM_P2
2021/11/11 00:00:49;;;;;;;24.63;11.15;;;;;;;0.70;100.00;96419.75;5072212;28;24438;-73
2021/11/11 00:03:16;;;;;;;14.13;10.50;;;;;;;0.61;100.00;96415.63;5072249;28;24419;-74
2021/11/11 00:05:42;;;;;;;12.90;10.00;;;;;;;0.64;100.00;96418.16;5072179;28;24414;-74
2021/11/11 00:08:10;;;;;;;11.93;10.45;;;;;;;0.75;100.00;96412.06;5072481;28;24450;-74
2021/11/11 00:10:36;;;;;;;18.55;13.98;;;;;;;0.84;100.00;96411.94;5072031;28;24517;-74
2021/11/11 00:13:03;;;;;;;22.60;13.77;;;;;;;0.68;100.00;96412.16;5072287;28;24443;-74
2021/11/11 00:15:31;;;;;;;14.40;11.93;;;;;;;0.69;100.00;96403.63;5071559;28;24792;-74
2021/11/11 00:17:59;;;;;;;15.30;11.52;;;;;;;0.67;100.00;96407.91;5072188;28;24457;-74
2021/11/11 00:20:27;;;;;;;15.25;12.13;;;;;;;0.76;100.00;96404.38;5072027;28;24452;-74
2021/11/11 00:22:55;;;;;;;15.40;12.15;;;;;;;0.67;100.00;96396.88;5072082;28;24422;-74
2021/11/11 00:25:24;;;;;;;14.88;11.52;;;;;;;0.64;100.00;96399.47;5071503;28;24430;-74
2021/11/11 00:27:51;;;;;;;18.17;12.07;;;;;;;0.47;100.00;96394.59;5072028;28;24429;-73
2021/11/11 00:30:20;;;;;;;20.83;13.60;;;;;;;0.30;100.00;96391.41;5071613;28;24430;-73
2021/11/11 00:32:47;;;;;;;13.65;11.25;;;;;;;0.22;100.00;96391.50;5071590;28;24449;-74
2021/11/11 00:35:16;;;;;;;15.15;12.18;;;;;;;0.33;100.00;96391.38;5071340;28;24959;-73
2021/11/11 00:37:45;;;;;;;15.07;13.53;;;;;;;0.26;100.00;96393.19;5071704;28;24421;-74
2021/11/11 00:40:12;;;;;;;16.63;14.30;;;;;;;0.30;100.00;96388.84;5071431;28;24418;-74
2021/11/11 00:42:39;;;;;;;16.77;14.52;;;;;;;0.37;100.00;96385.38;5071336;28;24434;-74
2021/11/11 00:45:06;;;;;;;18.02;14.82;;;;;;;0.42;100.00;96388.72;5071235;28;24421;-73
2021/11/11 00:47:33;;;;;;;20.27;15.48;;;;;;;0.41;100.00;96392.16;5071257;28;24430;-73
2021/11/11 00:50:00;;;;;;;34.08;14.65;;;;;;;0.53;100.00;96394.53;5071248;28;24437;-74
2021/11/11 00:52:28;;;;;;;23.02;17.45;;;;;;;0.42;100.00;96387.00;5071187;28;24451;-74
2021/11/11 00:54:54;;;;;;;24.58;18.50;;;;;;;0.29;100.00;96387.19;5071020;28;24422;-73
2021/11/11 00:57:21;;;;;;;28.52;17.98;;;;;;;0.27;100.00;96392.31;5071068;28;24415;-74
2021/11/11 00:59:47;;;;;;;26.67;17.33;;;;;;;0.31;100.00;96382.91;5071240;28;24780;-73
2021/11/11 01:02:14;;;;;;;26.65;19.25;;;;;;;0.39;100.00;96391.31;5071289;28;24414;-73
2021/11/11 01:04:41;;;;;;;25.00;19.27;;;;;;;0.33;100.00;96382.03;5070795;28;24435;-73
2021/11/11 01:07:09;;;;;;;23.77;18.50;;;;;;;0.29;100.00;96389.72;5071265;28;24425;-74
2021/11/11 01:09:38;;;;;;;24.80;18.63;;;;;;;0.32;100.00;96382.06;5071130;28;24434;-73
2021/11/11 01:12:06;;;;;;;23.15;18.08;;;;;;;0.35;100.00;96380.31;5071742;28;24445;-73
2021/11/11 01:14:33;;;;;;;26.73;18.35;;;;;;;0.29;100.00;96384.63;5071363;28;24425;-73
2021/11/11 01:17:00;;;;;;;22.30;18.27;;;;;;;0.02;100.00;96393.47;5071806;28;24431;-74
2021/11/11 01:19:26;;;;;;;24.35;16.52;;;;;;;-0.13;100.00;96394.47;5071983;28;24426;-74
2021/11/11 01:21:54;;;;;;;19.13;15.98;;;;;;;-0.19;100.00;96390.28;5070906;28;24468;-74
2021/11/11 01:24:21;;;;;;;19.00;15.02;;;;;;;-0.13;100.00;96385.13;5070875;28;24534;-73
2021/11/11 01:26:49;;;;;;;20.00;14.23;;;;;;;0.03;100.00;96379.84;5070824;28;24426;-73
2021/11/11 01:29:15;;;;;;;16.27;13.60;;;;;;;0.11;100.00;96384.03;5071130;28;24415;-73
2021/11/11 01:31:42;;;;;;;16.17;13.13;;;;;;;0.06;100.00;96390.00;5070670;28;25076;-74
2021/11/11 01:34:09;;;;;;;22.25;11.38;;;;;;;-0.18;100.00;96396.25;5070822;28;24986;-73
2021/11/11 01:36:35;;;;;;;16.13;8.65;;;;;;;-0.05;100.00;96400.31;5070444;28;24780;-74
2021/11/11 01:39:03;;;;;;;12.00;9.50;;;;;;;-0.03;100.00;96396.06;5070795;28;24830;-73
2021/11/11 01:41:30;;;;;;;11.38;9.43;;;;;;;0.06;100.00;96400.19;5071107;28;24792;-73
2021/11/11 01:43:57;;;;;;;20.52;15.35;;;;;;;0.29;100.00;96405.84;5070376;28;24956;-73
2021/11/11 01:46:24;;;;;;;24.00;16.63;;;;;;;0.27;100.00;96405.03;5070328;28;24434;-74
2021/11/11 01:48:51;;;;;;;19.58;14.70;;;;;;;0.21;100.00;96405.09;5070942;28;24410;-74
2021/11/11 01:51:18;;;;;;;19.13;14.73;;;;;;;0.16;100.00;96400.06;5070369;28;24426;-74
2021/11/11 01:53:45;;;;;;;22.85;16.33;;;;;;;0.05;100.00;96406.16;5070540;28;24442;-74
2021/11/11 01:56:11;;;;;;;20.73;15.38;;;;;;;-0.01;100.00;96394.31;5070374;28;24410;-74
2021/11/11 01:58:38;;;;;;;24.08;14.30;;;;;;;0.00;100.00;96385.84;5070441;28;24426;-74
2021/11/11 02:01:06;;;;;;;27.38;15.98;;;;;;;-0.03;100.00;96373.16;5069669;28;24438;-74
2021/11/11 02:03:33;;;;;;;18.38;13.43;;;;;;;0.01;100.00;96376.50;5070294;28;24962;-73
2021/11/11 02:06:00;;;;;;;20.08;13.85;;;;;;;-0.06;100.00;96373.19;5069823;28;24433;-73
2021/11/11 02:08:27;;;;;;;17.67;13.38;;;;;;;-0.13;100.00;96371.56;5070502;28;24434;-73
2021/11/11 02:10:54;;;;;;;16.40;12.98;;;;;;;-0.11;100.00;96364.72;5070099;28;24998;-73
2021/11/11 02:13:21;;;;;;;17.48;13.27;;;;;;;-0.09;100.00;96360.47;5070431;28;24447;-73
2021/11/11 02:15:47;;;;;;;16.75;13.65;;;;;;;-0.03;100.00;96358.72;5070113;28;24414;-74
2021/11/11 02:18:15;;;;;;;16.92;13.43;;;;;;;-0.09;100.00;96363.88;5070216;28;24430;-74
2021/11/11 02:20:45;;;;;;;27.23;13.73;;;;;;;-0.27;100.00;96357.28;5069976;28;24438;-74
2021/11/11 02:23:15;;;;;;;20.65;12.00;;;;;;;-0.35;100.00;96353.97;5070399;28;24472;-73
2021/11/11 02:25:43;;;;;;;19.17;12.45;;;;;;;-0.32;100.00;96348.84;5069787;28;24963;-74
2021/11/11 02:28:11;;;;;;;15.57;12.73;;;;;;;-0.19;100.00;96349.53;5070161;28;24517;-73
2021/11/11 02:30:40;;;;;;;29.55;14.13;;;;;;;-0.22;100.00;96348.75;5070121;28;24431;-73
2021/11/11 02:33:11;;;;;;;17.92;13.82;;;;;;;-0.14;100.00;96349.53;5069976;28;24443;-73
2021/11/11 02:35:38;;;;;;;16.65;13.52;;;;;;;-0.09;100.00;96358.78;5069899;28;24430;-73
2021/11/11 02:38:07;;;;;;;16.48;13.45;;;;;;;-0.05;100.00;96359.56;5070154;28;24800;-73
2021/11/11 02:40:35;;;;;;;16.83;14.00;;;;;;;0.01;100.00;96358.69;5070067;28;24513;-73
2021/11/11 02:43:02;;;;;;;18.45;14.07;;;;;;;-0.05;100.00;96362.97;5070027;28;24983;-73
2021/11/11 02:45:33;;;;;;;17.45;14.40;;;;;;;-0.14;100.00;96368.19;5069648;28;24421;-73
2021/11/11 02:48:00;;;;;;;17.55;14.45;;;;;;;-0.13;100.00;96367.31;5070186;28;24784;-73
2021/11/11 02:50:28;;;;;;;18.10;15.70;;;;;;;-0.08;100.00;96357.06;5070085;28;24438;-73
2021/11/11 02:52:57;;;;;;;20.10;15.27;;;;;;;-0.07;100.00;96362.16;5069842;28;24450;-73
2021/11/11 02:55:25;;;;;;;19.88;14.68;;;;;;;-0.11;100.00;96359.63;5069641;28;24430;-73
2021/11/11 02:57:53;;;;;;;22.00;13.30;;;;;;;-0.49;100.00;96368.53;5069833;28;24434;-73
2021/11/11 03:00:22;;;;;;;12.30;10.50;;;;;;;-0.33;100.00;96369.25;5069987;28;24422;-73
2021/11/11 03:02:50;;;;;;;12.23;9.90;;;;;;;-0.22;100.00;96369.97;5069890;28;24944;-73
2021/11/11 03:05:20;;;;;;;17.13;12.27;;;;;;;-0.15;100.00;96375.81;5069592;28;24520;-73
2021/11/11 03:07:47;;;;;;;15.07;11.18;;;;;;;-0.10;100.00;96357.09;5070116;28;24796;-73
2021/11/11 03:10:18;;;;;;;11.30;10.10;;;;;;;-0.08;100.00;96357.06;5070370;28;24437;-75
2021/11/11 03:12:49;;;;;;;13.20;9.60;;;;;;;-0.09;100.00;96348.59;5073351;28;24498;-75
2021/11/11 03:15:17;;;;;;;12.32;10.88;;;;;;;-0.13;100.00;96356.28;5073828;28;24464;-75
2021/11/11 03:17:44;;;;;;;16.43;12.47;;;;;;;-0.13;100.00;96359.66;5074093;28;24881;-75
2021/11/11 03:20:13;;;;;;;11.60;10.40;;;;;;;-0.14;100.00;96355.44;5074016;28;24431;-75
2021/11/11 03:22:42;;;;;;;19.00;10.10;;;;;;;-0.18;100.00;96351.25;5075313;28;24500;-75
2021/11/11 03:25:09;;;;;;;19.25;10.82;;;;;;;-0.54;100.00;96357.56;5073134;28;24434;-74
2021/11/11 03:27:36;;;;;;;18.45;12.23;;;;;;;-0.62;100.00;96354.28;5073461;28;24414;-75
2021/11/11 03:30:05;;;;;;;15.98;12.00;;;;;;;-0.61;100.00;96355.94;5073188;28;24994;-75
2021/11/11 03:32:32;;;;;;;14.40;12.40;;;;;;;-0.50;100.00;96356.69;5073341;28;24831;-75
2021/11/11 03:34:58;;;;;;;15.80;12.57;;;;;;;-0.42;100.00;96352.34;5073180;28;24419;-75
2021/11/11 03:37:25;;;;;;;15.57;13.45;;;;;;;-0.35;100.00;96351.44;5073059;28;24414;-74
2021/11/11 03:39:52;;;;;;;18.42;13.80;;;;;;;-0.42;100.00;96356.59;5072870;28;24815;-75
2021/11/11 03:42:19;;;;;;;15.47;12.70;;;;;;;-0.38;100.00;96354.00;5073257;28;24513;-75
2021/11/11 03:44:47;;;;;;;20.88;13.10;;;;;;;-0.30;100.00;96354.78;5072715;28;24959;-75
2021/11/11 03:47:15;;;;;;;16.10;12.52;;;;;;;-0.29;100.00;96348.81;5066397;28;24567;-75
2021/11/11 03:49:42;;;;;;;14.98;11.82;;;;;;;-0.31;100.00;96357.31;5067210;28;24435;-74
2021/11/11 03:52:10;;;;;;;13.43;9.18;;;;;;;-0.26;100.00;96353.88;5064653;28;24434;-75
2021/11/11 03:54:39;;;;;;;12.23;10.65;;;;;;;-0.25;100.00;96360.66;5074262;28;24552;-75
2021/11/11 03:57:06;;;;;;;19.65;8.85;;;;;;;-0.35;100.00;96364.16;5073296;28;24825;-75
2021/11/11 03:59:35;;;;;;;41.00;7.03;;;;;;;-0.66;100.00;96366.19;5066687;28;25002;-75
2021/11/11 04:02:02;;;;;;;19.67;5.77;;;;;;;-0.77;100.00;96370.50;5073396;28;24956;-74
2021/11/11 04:04:30;;;;;;;10.40;4.68;;;;;;;-0.70;100.00;96379.78;5064866;28;24438;-75
2021/11/11 04:06:56;;;;;;;10.17;4.83;;;;;;;-0.58;100.00;96386.44;5072939;28;24441;-75
2021/11/11 04:09:23;;;;;;;16.80;7.82;;;;;;;-0.45;100.00;96377.81;5073200;28;24424;-75
2021/11/11 04:11:50;;;;;;;15.60;8.63;;;;;;;-0.48;100.00;96382.97;5072927;28;24426;-75
2021/11/11 04:14:17;;;;;;;25.55;8.45;;;;;;;-0.41;100.00;96374.38;5072711;28;24972;-75
2021/11/11 04:16:45;;;;;;;21.17;12.27;;;;;;;-0.26;100.00;96374.25;5073271;28;24426;-75
2021/11/11 04:19:13;;;;;;;20.33;13.48;;;;;;;-0.27;100.00;96374.25;5073801;28;24462;-75
2021/11/11 04:21:41;;;;;;;35.37;12.63;;;;;;;-0.35;100.00;96373.50;5073630;28;24435;-75
2021/11/11 04:24:08;;;;;;;29.55;11.90;;;;;;;-0.40;100.00;96371.00;5072601;28;24815;-75
2021/11/11 04:26:39;;;;;;;18.20;12.38;;;;;;;-0.36;100.00;96379.44;5073045;28;24464;-75
2021/11/11 04:29:10;;;;;;;17.70;10.73;;;;;;;-0.36;100.00;96374.38;5071599;28;24442;-75
2021/11/11 04:31:43;;;;;;;32.45;11.13;;;;;;;-0.50;100.00;96377.88;5066004;28;24526;-75
2021/11/11 04:34:12;;;;;;;14.00;10.43;;;;;;;-0.59;100.00;96362.72;5072987;28;24532;-75
2021/11/11 04:37:06;;;;;;;20.75;12.65;;;;;;;-0.56;100.00;96362.66;5072977;28;24446;-75
2021/11/11 04:42:42;;;;;;;16.20;8.77;;;;;;;-0.69;100.00;96366.19;5016426;28;21656;-75
2021/11/11 04:45:33;;;;;;;16.92;10.80;;;;;;;-0.82;100.00;96369.69;5074172;28;24414;-75
2021/11/11 04:48:16;;;;;;;12.68;9.95;;;;;;;-1.07;100.00;96371.63;5072911;28;24480;-75
2021/11/11 05:01:40;;;;;;;11.85;9.63;;;;;;;-0.66;100.00;96400.94;5072757;28;25016;-75
2021/11/11 05:04:06;;;;;;;12.93;8.52;;;;;;;-0.59;100.00;96395.78;5071891;28;24472;-75
2021/11/11 05:06:33;;;;;;;11.70;8.43;;;;;;;-0.49;100.00;96402.47;5071407;28;24426;-75
2021/11/11 05:09:00;;;;;;;8.80;7.90;;;;;;;-0.41;100.00;96404.09;5072110;28;24628;-75
2021/11/11 05:11:27;;;;;;;27.07;7.23;;;;;;;-0.41;100.00;96402.38;5069369;28;24508;-75
2021/11/11 05:13:54;;;;;;;26.90;6.65;;;;;;;-0.48;100.00;96395.69;5068484;28;24458;-75
2021/11/11 05:16:20;;;;;;;11.32;5.63;;;;;;;-0.48;100.00;96393.16;5070944;28;24442;-75
2021/11/11 05:18:47;;;;;;;9.03;6.20;;;;;;;-0.51;100.00;96393.16;5071224;28;25008;-75
2021/11/11 05:21:14;;;;;;;17.52;5.80;;;;;;;-0.63;100.00;96385.63;5071125;28;24431;-75
2021/11/11 05:23:41;;;;;;;9.20;5.82;;;;;;;-0.59;100.00;96388.16;5070882;28;24784;-75
2021/11/11 05:26:07;;;;;;;9.43;6.25;;;;;;;-0.53;100.00;96399.97;5057289;28;24497;-74
2021/11/11 05:28:36;;;;;;;8.30;6.85;;;;;;;-0.50;100.00;96392.31;5070184;28;24431;-74
2021/11/11 05:31:02;;;;;;;11.05;6.80;;;;;;;-0.48;100.00;96390.59;5078278;28;24441;-73
2021/11/11 05:33:29;;;;;;;9.68;6.97;;;;;;;-0.41;100.00;96384.56;5079933;28;24458;-75
2021/11/11 05:35:55;;;;;;;11.55;9.48;;;;;;;-0.37;100.00;96383.72;5057333;28;24805;-75
2021/11/11 05:38:22;;;;;;;11.25;9.35;;;;;;;-0.47;100.00;96381.25;5070433;28;24427;-75
2021/11/11 05:40:48;;;;;;;11.70;9.57;;;;;;;-0.48;100.00;96380.44;5070477;28;25684;-76
2021/11/11 05:43:15;;;;;;;10.73;9.63;;;;;;;-0.50;100.00;96380.41;5070927;28;24422;-75
2021/11/11 05:45:43;;;;;;;13.10;10.07;;;;;;;-0.58;100.00;96381.38;5070583;28;24429;-75
2021/11/11 05:48:09;;;;;;;11.18;9.98;;;;;;;-0.60;100.00;96381.34;5069046;28;24431;-75
2021/11/11 05:50:37;;;;;;;9.68;8.65;;;;;;;-0.61;100.00;96366.97;5064219;28;24430;-75
2021/11/11 05:53:04;;;;;;;12.48;9.65;;;;;;;-0.55;100.00;96372.00;5061826;28;24527;-75
2021/11/11 05:55:30;;;;;;;19.23;10.05;;;;;;;-0.58;100.00;96376.28;5070543;28;24415;-75
2021/11/11 05:57:57;;;;;;;16.20;10.10;;;;;;;-0.49;100.00;96371.91;5070602;28;25007;-74
2021/11/11 06:00:24;;;;;;;13.45;10.77;;;;;;;-0.52;100.00;96371.09;5062271;28;24431;-75
2021/11/11 06:02:52;;;;;;;16.40;10.77;;;;;;;-0.54;100.00;96363.50;5070736;28;24427;-75
2021/11/11 06:05:20;;;;;;;14.18;11.68;;;;;;;-0.59;100.00;96369.50;5070206;28;24413;-75
2021/11/11 06:07:47;;;;;;;20.40;11.75;;;;;;;-0.71;100.00;96375.53;5070333;28;24415;-75
2021/11/11 06:10:13;;;;;;;12.38;10.18;;;;;;;-0.68;100.00;96378.03;5070348;28;24816;-74
2021/11/11 06:12:40;;;;;;;11.73;9.10;;;;;;;-0.81;100.00;96387.50;5070549;28;24434;-76
2021/11/11 06:15:08;;;;;;;17.50;9.90;;;;;;;-0.78;100.00;96394.25;5070139;28;24450;-75
2021/11/11 06:17:35;;;;;;;11.30;9.35;;;;;;;-0.75;100.00;96394.22;5070421;28;24952;-75
2021/11/11 06:20:09;;;;;;;15.38;10.63;;;;;;;-0.75;100.00;96389.13;5070147;28;24526;-74
2021/11/11 06:22:36;;;;;;;11.80;9.23;;;;;;;-0.65;100.00;96382.28;5070193;28;24831;-75
2021/11/11 06:25:03;;;;;;;16.35;10.57;;;;;;;-0.61;100.00;96383.94;5069892;28;24410;-75
2021/11/11 06:27:29;;;;;;;17.75;11.82;;;;;;;-0.55;100.00;96383.88;5070501;28;24418;-75
2021/11/11 06:29:56;;;;;;;15.10;11.52;;;;;;;-0.69;100.00;96384.00;5070121;28;24442;-75
2021/11/11 06:32:22;;;;;;;17.83;12.32;;;;;;;-0.77;100.00;96391.69;5066593;28;24436;-75
2021/11/11 06:34:49;;;;;;;13.98;11.45;;;;;;;-0.86;100.00;96391.75;5064872;28;24451;-74
2021/11/11 06:37:17;;;;;;;14.10;10.38;;;;;;;-0.83;100.00;96396.00;5070304;28;24449;-74
2021/11/11 06:39:44;;;;;;;14.15;10.13;;;;;;;-0.84;100.00;96397.69;5069624;28;25031;-74
2021/11/11 06:42:10;;;;;;;13.73;9.85;;;;;;;-0.76;100.00;96398.47;5070401;28;24414;-74
2021/11/11 06:44:41;;;;;;;10.55;8.98;;;;;;;-0.86;100.00;96393.47;5069810;28;24471;-75
2021/11/11 06:47:08;;;;;;;12.18;8.85;;;;;;;-0.92;100.00;96388.44;5072485;28;24537;-73
2021/11/11 06:49:35;;;;;;;9.25;7.97;;;;;;;-1.00;100.00;96393.59;5073920;28;24974;-74
2021/11/11 06:52:04;;;;;;;11.13;7.30;;;;;;;-1.07;100.00;96386.88;5073604;28;24425;-75
2021/11/11 06:54:32;;;;;;;7.93;6.72;;;;;;;-1.14;100.00;96380.97;5073400;28;25024;-75
2021/11/11 06:56:59;;;;;;;8.85;6.32;;;;;;;-1.09;100.00;96386.03;5074028;28;24433;-75
2021/11/11 06:59:25;;;;;;;7.03;6.32;;;;;;;-0.92;100.00;96384.19;5073402;28;24983;-75
2021/11/11 07:01:52;;;;;;;8.50;7.30;;;;;;;-0.77;100.00;96383.22;5073473;28;24414;-76
2021/11/11 07:04:18;;;;;;;14.95;9.70;;;;;;;-0.66;100.00;96391.59;5073607;28;24422;-76
2021/11/11 07:06:45;;;;;;;13.15;9.60;;;;;;;-0.38;100.00;96388.78;5069390;28;25018;-73
2021/11/11 07:09:12;;;;;;;12.88;9.05;;;;;;;-0.43;100.00;96386.31;5065028;28;24431;-75
2021/11/11 07:11:39;;;;;;;9.27;7.80;;;;;;;-0.46;100.00;96393.97;5066073;28;24809;-75
2021/11/11 07:14:06;;;;;;;8.25;7.00;;;;;;;-0.32;100.00;96392.13;5064733;28;24455;-76
2021/11/11 07:16:32;;;;;;;12.87;8.17;;;;;;;-0.11;100.00;96397.84;5072747;28;25032;-76
2021/11/11 07:18:59;;;;;;;11.63;8.68;;;;;;;0.06;100.00;96390.84;5073362;28;24804;-74
2021/11/11 07:21:26;;;;;;;11.35;8.35;;;;;;;0.27;100.00;96394.84;5073187;28;24423;-75
2021/11/11 07:23:52;;;;;;;14.15;10.30;;;;;;;0.47;100.00;96397.13;5073461;28;24426;-76
2021/11/11 07:26:19;;;;;;;12.15;9.50;;;;;;;0.65;100.00;96402.00;5070887;28;24461;-75
2021/11/11 07:28:47;;;;;;;12.88;9.18;;;;;;;0.89;100.00;96399.94;5064584;28;24431;-75
2021/11/11 07:31:15;;;;;;;11.10;7.70;;;;;;;0.66;100.00;96407.91;5073013;28;24504;-76
2021/11/11 07:33:42;;;;;;;10.55;7.13;;;;;;;0.31;100.00;96416.03;5064847;28;24431;-75
2021/11/11 07:36:08;;;;;;;11.02;7.63;;;;;;;0.23;100.00;96405.94;5072390;28;24983;-75
2021/11/11 07:38:35;;;;;;;10.63;7.63;;;;;;;0.27;100.00;96416.94;5071102;28;24435;-76
2021/11/11 07:41:02;;;;;;;9.93;6.53;;;;;;;0.34;100.00;96426.19;5069532;28;24441;-73
2021/11/11 07:43:28;;;;;;;8.07;6.50;;;;;;;0.40;100.00;96424.41;5065204;28;24434;-75
2021/11/11 07:45:56;;;;;;;10.82;7.43;;;;;;;0.47;100.00;96417.53;5072316;28;24967;-75
2021/11/11 07:48:23;;;;;;;12.18;8.90;;;;;;;0.74;100.00;96418.84;5072634;28;24839;-76
2021/11/11 07:50:51;;;;;;;14.38;11.65;;;;;;;1.04;100.00;96409.06;5053860;28;24964;-75
2021/11/11 07:53:18;;;;;;;12.55;10.43;;;;;;;1.36;100.00;96419.63;5033371;28;24533;-74
2021/11/11 07:55:44;;;;;;;9.75;8.20;;;;;;;1.59;100.00;96424.34;5032749;28;24455;-75
2021/11/11 07:58:11;;;;;;;10.25;7.20;;;;;;;1.88;100.00;96425.53;5031582;28;24478;-75
2021/11/11 08:00:39;;;;;;;9.43;8.05;;;;;;;1.98;100.00;96431.34;5033673;28;24420;-75
2021/11/11 08:03:07;;;;;;;9.73;7.60;;;;;;;2.13;100.00;96428.50;5032794;28;24460;-75
2021/11/11 08:05:34;;;;;;;13.75;7.47;;;;;;;1.92;100.00;96442.50;5032196;28;24969;-75
2021/11/11 08:08:01;;;;;;;15.10;11.38;;;;;;;1.66;100.00;96446.34;5032841;28;24419;-73
2021/11/11 08:10:27;;;;;;;17.55;12.57;;;;;;;1.42;100.00;96445.06;5032432;28;24436;-76
2021/11/11 08:12:54;;;;;;;12.88;10.20;;;;;;;1.37;100.00;96451.94;5032468;28;24420;-76
2021/11/11 08:15:21;;;;;;;14.27;9.18;;;;;;;1.45;100.00;96449.28;5032243;28;24534;-76
2021/11/11 08:17:47;;;;;;;24.17;15.85;;;;;;;1.18;100.00;96451.38;5032853;28;24424;-77
2021/11/11 08:20:16;;;;;;;22.88;14.02;;;;;;;1.18;100.00;96451.38;5034515;28;24790;-76
2021/11/11 08:22:44;;;;;;;18.83;12.50;;;;;;;1.42;100.00;96459.53;5033832;28;24523;-75
2021/11/11 08:25:13;;;;;;;11.82;9.10;;;;;;;1.66;100.00;96458.28;5034552;28;24451;-76
2021/11/11 08:27:41;;;;;;;12.68;9.18;;;;;;;1.59;100.00;96452.41;5034814;28;25031;-75
2021/11/11 08:30:11;;;;;;;12.38;8.88;;;;;;;1.74;100.00;96453.03;5034720;28;24420;-76
2021/11/11 08:32:39;;;;;;;13.85;9.02;;;;;;;1.67;100.00;96452.31;5033436;28;24423;-76
2021/11/11 08:35:06;;;;;;;12.47;8.53;;;;;;;1.97;100.00;96450.94;5032513;28;24625;-76
2021/11/11 08:37:34;;;;;;;11.68;7.78;;;;;;;2.42;100.00;96443.25;5032367;28;24419;-75
2021/11/11 08:40:01;;;;;;;13.23;7.78;;;;;;;2.80;100.00;96451.84;5031555;28;24426;-75
2021/11/11 08:42:27;;;;;;;12.25;7.85;;;;;;;3.20;100.00;96459.50;5031793;28;24422;-75
2021/11/11 08:44:54;;;;;;;15.40;7.78;;;;;;;3.20;100.00;96443.28;5031481;28;24435;-75
2021/11/11 08:47:21;;;;;;;11.80;7.50;;;;;;;3.45;100.00;96444.41;5031460;28;25022;-75
2021/11/11 08:49:51;;;;;;;12.82;7.40;;;;;;;3.65;100.00;96443.91;5031782;28;24778;-75
2021/11/11 08:52:18;;;;;;;11.68;7.57;;;;;;;3.94;100.00;96448.31;5033228;28;24547;-76
2021/11/11 08:54:46;;;;;;;9.93;7.78;;;;;;;4.24;100.00;96451.78;5031137;28;24443;-74
2021/11/11 08:57:13;;;;;;;11.67;8.23;;;;;;;4.54;100.00;96449.25;5031584;28;24595;-75
2021/11/11 08:59:40;;;;;;;12.60;8.10;;;;;;;4.84;100.00;96443.22;5031668;28;24603;-76
2021/11/11 09:02:06;;;;;;;12.23;8.57;;;;;;;5.07;100.00;96442.53;5032953;28;24408;-76
2021/11/11 09:04:33;;;;;;;10.48;8.02;;;;;;;5.25;100.00;96442.88;5031931;28;24985;-75
2021/11/11 09:07:00;;;;;;;10.15;7.90;;;;;;;5.42;100.00;96439.78;5034642;28;24423;-75
2021/11/11 09:09:27;;;;;;;12.10;8.15;;;;;;;5.46;100.00;96439.63;5035211;28;24426;-75
2021/11/11 09:11:55;;;;;;;10.15;7.50;;;;;;;5.04;100.00;96449.50;5033867;28;25004;-77
2021/11/11 09:14:22;;;;;;;10.52;6.50;;;;;;;4.85;100.00;96454.34;5033276;28;24419;-75
2021/11/11 09:16:48;;;;;;;11.70;7.35;;;;;;;4.52;100.00;96456.97;5031937;28;24778;-75
2021/11/11 09:19:15;;;;;;;10.77;7.10;;;;;;;4.65;100.00;96442.09;5032986;28;24431;-75
2021/11/11 09:21:42;;;;;;;13.40;7.60;;;;;;;4.77;100.00;96440.88;5033748;28;24961;-75
2021/11/11 09:24:10;;;;;;;14.57;8.23;;;;;;;4.81;100.00;96437.34;5032247;28;24427;-75
2021/11/11 09:26:37;;;;;;;10.73;7.72;;;;;;;4.93;100.00;96449.84;5031073;28;24474;-75
2021/11/11 09:29:06;;;;;;;11.90;8.65;;;;;;;4.94;100.00;96448.94;5030856;28;24420;-74
2021/11/11 09:31:33;;;;;;;13.48;9.10;;;;;;;4.91;100.00;96448.19;5030682;28;24817;-73
2021/11/11 09:34:00;;;;;;;12.48;9.15;;;;;;;4.80;100.00;96453.63;5030601;28;24969;-74
2021/11/11 09:36:26;;;;;;;11.70;9.18;;;;;;;5.03;100.00;96456.34;5030509;28;24448;-74
2021/11/11 09:38:53;;;;;;;13.18;9.90;;;;;;;5.10;100.00;96455.28;5030679;28;25004;-74
2021/11/11 09:41:22;;;;;;;12.82;9.80;;;;;;;5.13;100.00;96458.66;5030819;28;24424;-74
2021/11/11 09:43:49;;;;;;;9.63;8.27;;;;;;;5.22;100.00;96461.78;5030885;28;25061;-75
2021/11/11 09:46:20;;;;;;;11.80;8.82;;;;;;;5.36;100.00;96457.94;5030428;28;24420;-75
2021/11/11 09:48:47;;;;;;;12.73;8.80;;;;;;;5.35;100.00;96457.13;5030749;28;24447;-74
2021/11/11 09:51:18;;;;;;;12.15;9.02;;;;;;;5.52;100.00;96459.97;5033897;28;24431;-73
2021/11/11 09:54:06;;;;;;;12.50;8.60;;;;;;;5.63;100.00;96459.63;5045161;28;24447;-73
2021/11/11 09:59:18;;;;;;;12.68;9.25;;;;;;;5.86;100.00;96453.75;5050603;28;24414;-73
2021/11/11 10:01:46;;;;;;;10.63;8.30;;;;;;;6.21;100.00;96460.28;5050280;28;24438;-73
2021/11/11 10:04:13;;;;;;;11.53;8.47;;;;;;;6.31;100.00;96458.25;5041766;28;25047;-73
2021/11/11 10:06:41;;;;;;;11.43;8.52;;;;;;;6.43;100.00;96462.13;5049886;28;24976;-73
2021/11/11 10:09:13;;;;;;;15.10;8.48;;;;;;;6.74;100.00;96462.69;5050155;28;24485;-73
2021/11/11 10:11:49;;;;;;;12.68;9.48;;;;;;;7.19;100.00;96463.59;5050085;28;24431;-73
2021/11/11 10:14:18;;;;;;;11.00;8.70;;;;;;;7.31;100.00;96459.75;5050572;28;24426;-74
2021/11/11 10:16:49;;;;;;;12.43;8.98;;;;;;;7.47;100.00;96469.38;5050088;28;24550;-73
2021/11/11 10:19:16;;;;;;;17.48;9.27;;;;;;;7.48;100.00;96467.63;5048464;28;24430;-73
2021/11/11 10:21:48;;;;;;;20.55;9.60;;;;;;;7.07;99.11;96474.38;5048232;28;24434;-73
2021/11/11 10:24:30;;;;;;;15.52;10.95;;;;;;;6.97;100.00;96469.59;5046144;28;24526;-75
2021/11/11 10:27:00;;;;;;;12.55;9.90;;;;;;;7.07;100.00;96464.91;5054484;28;24435;-75
2021/11/11 10:29:33;;;;;;;13.48;10.50;;;;;;;7.55;100.00;96455.34;5054210;28;24443;-75
2021/11/11 10:32:06;;;;;;;22.60;17.38;;;;;;;7.55;100.00;96458.75;5054102;28;24414;-75
2021/11/11 10:34:33;;;;;;;27.30;18.90;;;;;;;8.41;100.00;96458.63;5054090;28;24423;-73
2021/11/11 10:37:00;;;;;;;23.05;18.98;;;;;;;8.48;98.73;96454.88;5054157;28;24415;-73
2021/11/11 10:39:29;;;;;;;23.13;17.90;;;;;;;8.61;100.00;96452.63;5054007;28;24507;-75
2021/11/11 10:41:58;;;;;;;21.73;18.10;;;;;;;8.57;100.00;96447.69;5054076;28;24967;-74
2021/11/11 10:44:30;;;;;;;23.75;18.13;;;;;;;9.05;97.41;96454.09;5053678;28;24430;-73
2021/11/11 10:47:00;;;;;;;23.33;18.25;;;;;;;9.14;98.39;96456.28;5053612;28;24415;-74
2021/11/11 10:49:34;;;;;;;26.50;17.42;;;;;;;9.14;97.47;96458.84;5053902;28;24502;-74
2021/11/11 10:52:34;;;;;;;19.02;16.25;;;;;;;9.26;94.09;96466.03;5053800;28;24464;-73
2021/11/11 10:55:05;;;;;;;25.75;16.73;;;;;;;9.29;94.32;96465.06;5049871;28;24542;-74
2021/11/11 10:57:34;;;;;;;22.42;17.15;;;;;;;9.17;94.53;96454.38;5053824;28;24427;-73
2021/11/11 11:00:14;;;;;;;24.57;16.97;;;;;;;9.29;93.75;96452.97;5053808;28;24423;-74
2021/11/11 11:02:56;;;;;;;23.05;17.08;;;;;;;9.41;94.26;96456.72;5053626;28;24426;-74
2021/11/11 11:05:26;;;;;;;20.98;16.40;;;;;;;9.35;98.14;96460.47;5053030;28;24971;-74
2021/11/11 11:07:59;;;;;;;23.38;16.95;;;;;;;9.32;96.28;96452.84;5053333;28;24514;-74
2021/11/11 11:10:26;;;;;;;26.27;16.67;;;;;;;9.32;92.70;96445.09;5053401;28;24515;-73
2021/11/11 11:12:53;;;;;;;21.10;17.40;;;;;;;9.43;94.20;96444.56;5053415;28;24773;-73
2021/11/11 11:15:47;;;;;;;25.05;15.50;;;;;;;9.26;94.19;96442.78;5052921;28;24447;-73
2021/11/11 11:18:15;;;;;;;18.90;15.10;;;;;;;9.28;94.79;96442.72;5053603;28;24476;-74
2021/11/11 11:20:43;;;;;;;19.92;15.80;;;;;;;9.20;96.29;96441.31;5053296;28;24419;-75
2021/11/11 11:23:18;;;;;;;26.00;17.17;;;;;;;8.53;94.91;96452.13;5053174;28;24426;-74
2021/11/11 11:25:57;;;;;;;23.27;15.95;;;;;;;8.33;98.94;96447.78;5052894;28;24415;-75
2021/11/11 11:28:26;;;;;;;26.20;16.02;;;;;;;8.57;100.00;96435.59;5053058;28;20752;-74
2021/11/11 11:30:54;;;;;;;17.55;15.63;;;;;;;8.35;100.00;96447.72;5053087;28;24422;-73
2021/11/11 11:33:30;;;;;;;22.88;16.50;;;;;;;8.43;99.30;96443.94;5053057;28;24430;-73
2021/11/11 11:35:59;;;;;;;21.40;16.25;;;;;;;8.76;100.00;96435.63;5052768;28;21153;-73
2021/11/11 11:38:27;;;;;;;19.00;16.73;;;;;;;8.44;100.00;96447.34;5052844;28;20806;-73
2021/11/11 11:40:53;;;;;;;20.38;17.92;;;;;;;8.32;100.00;96440.94;5052434;28;24983;-73